sensor_id;sensor_type;location;lat;lon;timestamp;pressure;altitude;pressure_sealevel;temperature;humidity
52319;BME280;38258;51.148;14.068;2023-03-19T00:02:20;98123.34;;;6.23;84.29
52319;BME280;38258;51.148;14.068;2023-03-19T00:04:48;98149.00;;;6.45;83.54
52319;BME280;38258;51.148;14.068;2023-03-19T00:07:15;98147.47;;;6.32;84.54
52319;BME280;38258;51.148;14.068;2023-03-19T00:09:41;98138.81;;;6.33;83.64
52319;BME280;38258;51.148;14.068;2023-03-19T00:12:08;98148.47;;;6.21;86.00
52319;BME280;38258;51.148;14.068;2023-03-19T00:14:36;98143.09;;;6.34;84.13
52319;BME280;38258;51.148;14.068;2023-03-19T00:17:03;98160.44;;;6.33;84.45
52319;BME280;38258;51.148;14.068;2023-03-19T00:19:29;98157.19;;;6.19;86.56
52319;BME280;38258;51.148;14.068;2023-03-19T00:21:57;98145.09;;;6.16;84.26
52319;BME280;38258;51.148;14.068;2023-03-19T00:24:23;98153.66;;;6.25;85.08
52319;BME280;38258;51.148;14.068;2023-03-19T00:26:50;98157.56;;;6.50;82.43
52319;BME280;38258;51.148;14.068;2023-03-19T00:29:17;98148.19;;;6.42;81.54
52319;BME280;38258;51.148;14.068;2023-03-19T00:31:44;98136.66;;;6.60;79.60
52319;BME280;38258;51.148;14.068;2023-03-19T00:34:10;98152.88;;;6.74;78.52
52319;BME280;38258;51.148;14.068;2023-03-19T00:36:38;98159.97;;;6.64;79.77
52319;BME280;38258;51.148;14.068;2023-03-19T00:39:05;98152.47;;;6.46;81.87
52319;BME280;38258;51.148;14.068;2023-03-19T00:41:34;98159.56;;;6.33;82.63
52319;BME280;38258;51.148;14.068;2023-03-19T00:44:00;97937.09;;;5.20;81.83
52319;BME280;38258;51.148;14.068;2023-03-19T00:46:47;98123.97;;;6.41;80.47
52319;BME280;38258;51.148;14.068;2023-03-19T00:49:15;98079.41;;;6.11;79.77
52319;BME280;38258;51.148;14.068;2023-03-19T00:51:43;98022.94;;;5.64;82.26
52319;BME280;38258;51.148;14.068;2023-03-19T00:54:14;98067.38;;;6.05;80.82
52319;BME280;38258;51.148;14.068;2023-03-19T00:56:41;98156.22;;;6.26;83.74
52319;BME280;38258;51.148;14.068;2023-03-19T00:59:08;98028.88;;;5.73;80.89
52319;BME280;38258;51.148;14.068;2023-03-19T01:01:34;98057.16;;;5.91;81.16
52319;BME280;38258;51.148;14.068;2023-03-19T01:04:02;98150.66;;;6.49;80.95
52319;BME280;38258;51.148;14.068;2023-03-19T01:06:29;98072.53;;;6.07;80.61
52319;BME280;38258;51.148;14.068;2023-03-19T01:08:55;98160.94;;;6.57;79.73
52319;BME280;38258;51.148;14.068;2023-03-19T01:11:29;98124.22;;;6.24;80.20
52319;BME280;38258;51.148;14.068;2023-03-19T01:13:57;98076.16;;;5.93;81.44
52319;BME280;38258;51.148;14.068;2023-03-19T01:16:27;97998.06;;;5.49;80.34
52319;BME280;38258;51.148;14.068;2023-03-19T01:18:54;98115.53;;;6.27;79.34
52319;BME280;38258;51.148;14.068;2023-03-19T01:21:31;98099.13;;;6.23;78.88
52319;BME280;38258;51.148;14.068;2023-03-19T01:24:16;98110.34;;;6.23;79.02
52319;BME280;38258;51.148;14.068;2023-03-19T01:26:48;98036.44;;;5.88;77.78
52319;BME280;38258;51.148;14.068;2023-03-19T01:29:24;98150.66;;;6.51;78.44
52319;BME280;38258;51.148;14.068;2023-03-19T01:31:54;98156.56;;;6.59;78.01
52319;BME280;38258;51.148;14.068;2023-03-19T01:34:37;98069.03;;;6.11;77.54
52319;BME280;38258;51.148;14.068;2023-03-19T01:37:34;98052.75;;;5.97;78.13
52319;BME280;38258;51.148;14.068;2023-03-19T01:40:27;98013.41;;;5.65;78.43
52319;BME280;38258;51.148;14.068;2023-03-19T01:43:27;97922.69;;;4.98;79.33
52319;BME280;38258;51.148;14.068;2023-03-19T01:46:54;98016.91;;;5.62;78.27
52319;BME280;38258;51.148;14.068;2023-03-19T01:50:35;98009.81;;;5.74;75.83
52319;BME280;38258;51.148;14.068;2023-03-19T01:53:35;98023.34;;;5.35;82.82
52319;BME280;38258;51.148;14.068;2023-03-19T01:56:26;98135.50;;;6.21;79.25
52319;BME280;38258;51.148;14.068;2023-03-19T03:06:08;98006.69;;;4.83;87.89
52319;BME280;38258;51.148;14.068;2023-03-19T03:09:44;98141.44;;;5.64;88.00
52319;BME280;38258;51.148;14.068;2023-03-19T03:13:28;98057.47;;;4.98;89.15
52319;BME280;38258;51.148;14.068;2023-03-19T03:21:21;98114.94;;;5.38;87.01
52319;BME280;38258;51.148;14.068;2023-03-19T03:37:21;98110.94;;;5.09;88.70
52319;BME280;38258;51.148;14.068;2023-03-19T04:10:27;98068.88;;;4.83;82.89
52319;BME280;38258;51.148;14.068;2023-03-19T04:13:25;97943.53;;;4.13;82.11
52319;BME280;38258;51.148;14.068;2023-03-19T04:16:32;98036.13;;;4.75;80.73
52319;BME280;38258;51.148;14.068;2023-03-19T04:19:30;98125.38;;;5.34;79.45
52319;BME280;38258;51.148;14.068;2023-03-19T04:22:31;98082.38;;;5.13;77.97
52319;BME280;38258;51.148;14.068;2023-03-19T04:25:51;98165.53;;;5.74;76.89
52319;BME280;38258;51.148;14.068;2023-03-19T04:29:11;98040.19;;;5.00;76.45
52319;BME280;38258;51.148;14.068;2023-03-19T04:35:23;98180.09;;;5.87;73.98
52319;BME280;38258;51.148;14.068;2023-03-19T04:49:16;98041.25;;;4.80;75.21
52319;BME280;38258;51.148;14.068;2023-03-19T04:51:56;98066.34;;;4.78;75.88
52319;BME280;38258;51.148;14.068;2023-03-19T04:54:46;98167.63;;;5.42;75.60
52319;BME280;38258;51.148;14.068;2023-03-19T04:57:29;98094.69;;;4.95;76.40
52319;BME280;38258;51.148;14.068;2023-03-19T05:00:06;98187.56;;;5.37;77.05
52319;BME280;38258;51.148;14.068;2023-03-19T05:02:39;98049.31;;;4.50;78.02
52319;BME280;38258;51.148;14.068;2023-03-19T05:05:34;98085.88;;;5.10;75.48
52319;BME280;38258;51.148;14.068;2023-03-19T05:08:21;98086.16;;;4.80;79.20
52319;BME280;38258;51.148;14.068;2023-03-19T05:11:20;98174.56;;;5.42;78.18
52319;BME280;38258;51.148;14.068;2023-03-19T05:14:38;97939.38;;;3.96;79.69
52319;BME280;38258;51.148;14.068;2023-03-19T05:37:10;98082.72;;;4.81;80.42
52319;BME280;38258;51.148;14.068;2023-03-19T05:39:52;98038.06;;;4.51;78.82
52319;BME280;38258;51.148;14.068;2023-03-19T05:42:33;98070.75;;;4.65;80.54
52319;BME280;38258;51.148;14.068;2023-03-19T05:45:13;98051.00;;;4.56;80.09
52319;BME280;38258;51.148;14.068;2023-03-19T05:48:06;98176.41;;;5.30;80.30
52319;BME280;38258;51.148;14.068;2023-03-19T05:55:10;98153.94;;;5.28;80.64
52319;BME280;38258;51.148;14.068;2023-03-19T05:57:50;98152.22;;;5.28;80.91
52319;BME280;38258;51.148;14.068;2023-03-19T06:00:23;98169.38;;;5.42;81.54
52319;BME280;38258;51.148;14.068;2023-03-19T06:02:50;98176.19;;;5.49;79.75
52319;BME280;38258;51.148;14.068;2023-03-19T06:05:31;98178.91;;;5.36;80.84
52319;BME280;38258;51.148;14.068;2023-03-19T06:08:06;98176.19;;;5.50;78.73
52319;BME280;38258;51.148;14.068;2023-03-19T06:10:52;98181.19;;;5.68;77.59
52319;BME280;38258;51.148;14.068;2023-03-19T06:13:19;98167.34;;;5.67;76.03
52319;BME280;38258;51.148;14.068;2023-03-19T06:15:59;98192.03;;;5.99;73.57
52319;BME280;38258;51.148;14.068;2023-03-19T06:18:38;98194.50;;;6.12;72.46
52319;BME280;38258;51.148;14.068;2023-03-19T06:21:08;98195.41;;;6.09;72.99
52319;BME280;38258;51.148;14.068;2023-03-19T06:23:35;98199.66;;;6.15;71.72
52319;BME280;38258;51.148;14.068;2023-03-19T06:26:05;98195.28;;;6.18;72.67
52319;BME280;38258;51.148;14.068;2023-03-19T06:28:41;98200.41;;;6.25;71.88
52319;BME280;38258;51.148;14.068;2023-03-19T06:31:08;98194.34;;;6.22;74.26
52319;BME280;38258;51.148;14.068;2023-03-19T06:33:57;98188.19;;;6.31;72.12
52319;BME280;38258;51.148;14.068;2023-03-19T06:36:30;98189.03;;;6.30;71.88
52319;BME280;38258;51.148;14.068;2023-03-19T06:38:57;98176.09;;;6.27;71.99
52319;BME280;38258;51.148;14.068;2023-03-19T06:41:25;98182.13;;;6.32;71.46
52319;BME280;38258;51.148;14.068;2023-03-19T06:43:59;98182.84;;;6.42;71.51
52319;BME280;38258;51.148;14.068;2023-03-19T06:48:55;98177.63;;;6.42;71.84
52319;BME280;38258;51.148;14.068;2023-03-19T06:51:22;98182.78;;;6.45;72.63
52319;BME280;38258;51.148;14.068;2023-03-19T06:53:52;98188.69;;;6.57;72.34
52319;BME280;38258;51.148;14.068;2023-03-19T06:56:19;98184.38;;;6.53;75.19
52319;BME280;38258;51.148;14.068;2023-03-19T06:58:47;98188.50;;;6.68;72.83
52319;BME280;38258;51.148;14.068;2023-03-19T07:01:14;98175.53;;;6.66;72.87
52319;BME280;38258;51.148;14.068;2023-03-19T07:03:41;98160.69;;;6.74;72.47
52319;BME280;38258;51.148;14.068;2023-03-19T07:06:08;98180.38;;;6.88;74.69
52319;BME280;38258;51.148;14.068;2023-03-19T07:08:35;98171.00;;;6.77;73.85
52319;BME280;38258;51.148;14.068;2023-03-19T07:11:03;98176.97;;;6.84;73.17
52319;BME280;38258;51.148;14.068;2023-03-19T07:13:30;98193.94;;;7.05;72.98
52319;BME280;38258;51.148;14.068;2023-03-19T07:15:59;98188.66;;;7.12;70.40
52319;BME280;38258;51.148;14.068;2023-03-19T07:18:26;98161.03;;;7.04;70.86
52319;BME280;38258;51.148;14.068;2023-03-19T07:20:52;98186.47;;;7.35;69.36
52319;BME280;38258;51.148;14.068;2023-03-19T07:23:20;98206.72;;;7.67;70.30
52319;BME280;38258;51.148;14.068;2023-03-19T07:25:47;98195.31;;;7.72;67.99
52319;BME280;38258;51.148;14.068;2023-03-19T07:28:14;98188.41;;;7.71;68.26
52319;BME280;38258;51.148;14.068;2023-03-19T07:30:41;98214.81;;;7.97;67.22
52319;BME280;38258;51.148;14.068;2023-03-19T07:33:09;98208.59;;;8.04;68.43
52319;BME280;38258;51.148;14.068;2023-03-19T07:35:36;98222.44;;;8.06;67.11
52319;BME280;38258;51.148;14.068;2023-03-19T07:38:03;98215.28;;;8.16;67.19
52319;BME280;38258;51.148;14.068;2023-03-19T07:40:30;98219.47;;;8.23;64.77
52319;BME280;38258;51.148;14.068;2023-03-19T07:42:57;98220.13;;;8.33;65.82
52319;BME280;38258;51.148;14.068;2023-03-19T07:45:24;98200.03;;;8.38;65.70
52319;BME280;38258;51.148;14.068;2023-03-19T07:47:50;98215.22;;;8.60;65.95
52319;BME280;38258;51.148;14.068;2023-03-19T07:50:19;98221.91;;;8.32;64.23
52319;BME280;38258;51.148;14.068;2023-03-19T07:52:46;98205.22;;;8.38;65.58
52319;BME280;38258;51.148;14.068;2023-03-19T07:55:13;98217.13;;;8.52;64.48
52319;BME280;38258;51.148;14.068;2023-03-19T07:57:40;98219.63;;;8.56;64.58
52319;BME280;38258;51.148;14.068;2023-03-19T08:00:09;98213.22;;;8.71;64.10
52319;BME280;38258;51.148;14.068;2023-03-19T08:02:39;98202.25;;;8.93;64.55
52319;BME280;38258;51.148;14.068;2023-03-19T08:05:07;98196.75;;;9.05;63.92
52319;BME280;38258;51.148;14.068;2023-03-19T08:07:36;98193.53;;;8.94;62.84
52319;BME280;38258;51.148;14.068;2023-03-19T08:10:04;98205.84;;;9.24;62.75
52319;BME280;38258;51.148;14.068;2023-03-19T08:12:31;98204.75;;;9.66;63.67
52319;BME280;38258;51.148;14.068;2023-03-19T08:14:59;98210.84;;;9.66;60.87
52319;BME280;38258;51.148;14.068;2023-03-19T08:17:25;98202.25;;;9.93;64.44
52319;BME280;38258;51.148;14.068;2023-03-19T08:19:53;98215.00;;;10.03;62.46
52319;BME280;38258;51.148;14.068;2023-03-19T08:22:20;98198.91;;;10.49;62.34
52319;BME280;38258;51.148;14.068;2023-03-19T08:24:48;98202.84;;;10.02;60.03
52319;BME280;38258;51.148;14.068;2023-03-19T08:27:15;98204.41;;;10.38;61.60
52319;BME280;38258;51.148;14.068;2023-03-19T08:29:43;98209.72;;;10.65;60.51
52319;BME280;38258;51.148;14.068;2023-03-19T08:32:10;98200.13;;;10.93;60.82
52319;BME280;38258;51.148;14.068;2023-03-19T08:34:37;98199.16;;;10.68;59.28
52319;BME280;38258;51.148;14.068;2023-03-19T08:37:04;98201.72;;;10.70;59.76
52319;BME280;38258;51.148;14.068;2023-03-19T08:39:30;98198.66;;;10.57;60.32
52319;BME280;38258;51.148;14.068;2023-03-19T08:41:58;98205.44;;;10.02;61.64
52319;BME280;38258;51.148;14.068;2023-03-19T08:44:25;98199.28;;;10.05;61.47
52319;BME280;38258;51.148;14.068;2023-03-19T08:46:52;98216.22;;;10.22;63.04
52319;BME280;38258;51.148;14.068;2023-03-19T08:49:20;98219.56;;;10.27;60.65
52319;BME280;38258;51.148;14.068;2023-03-19T08:51:46;98221.78;;;10.41;60.50
52319;BME280;38258;51.148;14.068;2023-03-19T08:54:14;98216.47;;;10.44;61.18
52319;BME280;38258;51.148;14.068;2023-03-19T08:56:42;98214.41;;;10.54;60.15
52319;BME280;38258;51.148;14.068;2023-03-19T08:59:10;98219.81;;;10.49;61.13
52319;BME280;38258;51.148;14.068;2023-03-19T09:01:37;98215.88;;;10.91;60.07
52319;BME280;38258;51.148;14.068;2023-03-19T09:04:04;98213.66;;;11.06;58.79
52319;BME280;38258;51.148;14.068;2023-03-19T09:06:30;98208.72;;;10.96;60.60
52319;BME280;38258;51.148;14.068;2023-03-19T09:08:57;98209.19;;;11.09;59.37
52319;BME280;38258;51.148;14.068;2023-03-19T09:11:24;98219.41;;;11.17;58.73
52319;BME280;38258;51.148;14.068;2023-03-19T09:13:51;98219.66;;;11.09;59.94
52319;BME280;38258;51.148;14.068;2023-03-19T09:16:19;98222.19;;;11.38;62.08
52319;BME280;38258;51.148;14.068;2023-03-19T09:18:46;98222.25;;;11.36;58.81
52319;BME280;38258;51.148;14.068;2023-03-19T09:21:12;98233.91;;;11.27;58.36
52319;BME280;38258;51.148;14.068;2023-03-19T09:23:39;98225.59;;;11.14;59.29
52319;BME280;38258;51.148;14.068;2023-03-19T09:26:06;98220.72;;;11.03;59.00
52319;BME280;38258;51.148;14.068;2023-03-19T09:28:33;98224.03;;;11.09;58.99
52319;BME280;38258;51.148;14.068;2023-03-19T09:31:00;98210.84;;;11.63;61.83
52319;BME280;38258;51.148;14.068;2023-03-19T09:33:32;98220.09;;;11.48;59.48
52319;BME280;38258;51.148;14.068;2023-03-19T09:35:59;98227.13;;;11.47;59.74
52319;BME280;38258;51.148;14.068;2023-03-19T09:38:26;98227.34;;;11.90;58.26
52319;BME280;38258;51.148;14.068;2023-03-19T09:41:05;98231.16;;;11.56;59.28
52319;BME280;38258;51.148;14.068;2023-03-19T09:43:41;98221.47;;;12.09;59.25
52319;BME280;38258;51.148;14.068;2023-03-19T09:46:15;98224.25;;;12.04;58.99
52319;BME280;38258;51.148;14.068;2023-03-19T09:48:48;98212.53;;;12.14;57.98
52319;BME280;38258;51.148;14.068;2023-03-19T09:51:20;98179.50;;;11.85;59.42
52319;BME280;38258;51.148;14.068;2023-03-19T09:53:54;98219.47;;;12.15;59.00
52319;BME280;38258;51.148;14.068;2023-03-19T09:56:28;98222.25;;;11.62;58.43
52319;BME280;38258;51.148;14.068;2023-03-19T09:58:56;98218.78;;;12.10;58.69
52319;BME280;38258;51.148;14.068;2023-03-19T10:01:26;98218.34;;;11.97;59.12
52319;BME280;38258;51.148;14.068;2023-03-19T10:04:18;98220.84;;;12.02;56.29
52319;BME280;38258;51.148;14.068;2023-03-19T10:06:58;98226.97;;;12.01;58.88
52319;BME280;38258;51.148;14.068;2023-03-19T10:09:44;98222.66;;;12.24;59.07
52319;BME280;38258;51.148;14.068;2023-03-19T10:12:22;98219.25;;;12.44;59.02
52319;BME280;38258;51.148;14.068;2023-03-19T10:15:00;98217.09;;;12.55;59.09
52319;BME280;38258;51.148;14.068;2023-03-19T10:17:31;98212.94;;;12.26;59.33
52319;BME280;38258;51.148;14.068;2023-03-19T10:20:04;98223.53;;;12.47;56.95
52319;BME280;38258;51.148;14.068;2023-03-19T10:22:34;98225.38;;;12.44;57.51
52319;BME280;38258;51.148;14.068;2023-03-19T10:25:07;98210.31;;;12.50;57.80
52319;BME280;38258;51.148;14.068;2023-03-19T10:27:36;98197.06;;;12.53;58.69
52319;BME280;38258;51.148;14.068;2023-03-19T10:30:12;98215.03;;;12.64;58.15
52319;BME280;38258;51.148;14.068;2023-03-19T10:32:41;98214.09;;;12.65;56.53
52319;BME280;38258;51.148;14.068;2023-03-19T10:35:17;98210.19;;;12.75;60.14
52319;BME280;38258;51.148;14.068;2023-03-19T10:37:46;98216.44;;;12.72;61.88
52319;BME280;38258;51.148;14.068;2023-03-19T10:40:20;98219.69;;;13.00;57.20
52319;BME280;38258;51.148;14.068;2023-03-19T10:43:00;98213.00;;;13.13;55.33
52319;BME280;38258;51.148;14.068;2023-03-19T10:45:31;98213.88;;;13.14;56.66
52319;BME280;38258;51.148;14.068;2023-03-19T10:47:59;98209.00;;;13.25;56.45
52319;BME280;38258;51.148;14.068;2023-03-19T10:50:30;98214.72;;;13.57;55.14
52319;BME280;38258;51.148;14.068;2023-03-19T10:53:03;98216.16;;;13.44;56.13
52319;BME280;38258;51.148;14.068;2023-03-19T10:55:32;98210.81;;;13.46;54.41
52319;BME280;38258;51.148;14.068;2023-03-19T10:58:02;98208.41;;;13.62;54.93
52319;BME280;38258;51.148;14.068;2023-03-19T11:00:30;98202.06;;;13.24;55.85
52319;BME280;38258;51.148;14.068;2023-03-19T11:02:57;98202.47;;;13.15;56.15
52319;BME280;38258;51.148;14.068;2023-03-19T11:05:29;98196.41;;;13.34;57.34
52319;BME280;38258;51.148;14.068;2023-03-19T11:07:58;98204.03;;;13.40;56.87
52319;BME280;38258;51.148;14.068;2023-03-19T11:10:28;98211.53;;;13.28;55.57
52319;BME280;38258;51.148;14.068;2023-03-19T11:12:57;98205.19;;;13.55;55.79
52319;BME280;38258;51.148;14.068;2023-03-19T11:15:28;98213.28;;;13.90;53.49
52319;BME280;38258;51.148;14.068;2023-03-19T11:18:00;98201.34;;;13.83;55.80
52319;BME280;38258;51.148;14.068;2023-03-19T11:20:34;98209.84;;;14.28;54.05
52319;BME280;38258;51.148;14.068;2023-03-19T11:23:05;98200.81;;;13.75;57.47
52319;BME280;38258;51.148;14.068;2023-03-19T11:25:37;98197.84;;;13.63;54.03
52319;BME280;38258;51.148;14.068;2023-03-19T11:28:07;98197.59;;;13.68;56.87
52319;BME280;38258;51.148;14.068;2023-03-19T11:30:40;98194.66;;;13.95;56.51
52319;BME280;38258;51.148;14.068;2023-03-19T11:33:23;98182.81;;;14.44;56.33
52319;BME280;38258;51.148;14.068;2023-03-19T11:36:01;98178.91;;;14.70;53.01
52319;BME280;38258;51.148;14.068;2023-03-19T11:38:37;98175.56;;;14.86;53.82
52319;BME280;38258;51.148;14.068;2023-03-19T11:41:12;98182.19;;;14.00;57.37
52319;BME280;38258;51.148;14.068;2023-03-19T11:43:46;98183.31;;;14.13;55.98
52319;BME280;38258;51.148;14.068;2023-03-19T11:46:20;98184.78;;;14.38;58.76
52319;BME280;38258;51.148;14.068;2023-03-19T11:49:28;98184.25;;;13.73;58.75
52319;BME280;38258;51.148;14.068;2023-03-19T11:52:09;98179.97;;;14.29;57.23
52319;BME280;38258;51.148;14.068;2023-03-19T11:54:45;98185.44;;;14.05;58.70
52319;BME280;38258;51.148;14.068;2023-03-19T11:57:18;98183.31;;;14.13;56.76
52319;BME280;38258;51.148;14.068;2023-03-19T12:00:08;98179.50;;;14.77;53.11
52319;BME280;38258;51.148;14.068;2023-03-19T12:02:56;98179.72;;;14.90;52.31
52319;BME280;38258;51.148;14.068;2023-03-19T12:05:30;98187.19;;;15.17;52.31
52319;BME280;38258;51.148;14.068;2023-03-19T12:08:16;98186.81;;;15.07;51.10
52319;BME280;38258;51.148;14.068;2023-03-19T12:10:54;98175.50;;;14.87;52.22
52319;BME280;38258;51.148;14.068;2023-03-19T12:13:38;98180.34;;;14.77;52.83
52319;BME280;38258;51.148;14.068;2023-03-19T12:16:15;98182.09;;;14.96;52.18
52319;BME280;38258;51.148;14.068;2023-03-19T12:21:45;98176.03;;;15.29;52.81
52319;BME280;38258;51.148;14.068;2023-03-19T12:24:22;98177.75;;;14.95;53.24
52319;BME280;38258;51.148;14.068;2023-03-19T12:27:02;98178.91;;;15.24;51.83
52319;BME280;38258;51.148;14.068;2023-03-19T12:29:38;98174.56;;;15.23;52.21
52319;BME280;38258;51.148;14.068;2023-03-19T12:32:20;98166.88;;;14.47;58.63
52319;BME280;38258;51.148;14.068;2023-03-19T12:34:54;98172.78;;;14.89;54.44
52319;BME280;38258;51.148;14.068;2023-03-19T12:37:27;98170.66;;;14.78;55.13
52319;BME280;38258;51.148;14.068;2023-03-19T12:40:06;98176.41;;;14.11;54.57
52319;BME280;38258;51.148;14.068;2023-03-19T12:42:39;98166.31;;;14.40;54.54
52319;BME280;38258;51.148;14.068;2023-03-19T12:45:18;98157.59;;;14.20;56.97
52319;BME280;38258;51.148;14.068;2023-03-19T12:47:49;98151.50;;;14.37;55.52
52319;BME280;38258;51.148;14.068;2023-03-19T12:50:20;98170.19;;;14.13;55.11
52319;BME280;38258;51.148;14.068;2023-03-19T12:52:49;98134.19;;;14.33;55.68
52319;BME280;38258;51.148;14.068;2023-03-19T12:55:19;98158.50;;;14.56;57.31
52319;BME280;38258;51.148;14.068;2023-03-19T12:57:49;98160.84;;;14.81;52.92
52319;BME280;38258;51.148;14.068;2023-03-19T13:00:21;98170.31;;;15.21;52.61
52319;BME280;38258;51.148;14.068;2023-03-19T13:02:56;98163.28;;;15.89;51.52
52319;BME280;38258;51.148;14.068;2023-03-19T13:05:30;98178.78;;;15.61;54.05
52319;BME280;38258;51.148;14.068;2023-03-19T13:08:02;98183.66;;;16.03;51.45
52319;BME280;38258;51.148;14.068;2023-03-19T13:10:34;98172.91;;;15.56;50.68
52319;BME280;38258;51.148;14.068;2023-03-19T13:13:05;98175.19;;;15.46;51.22
52319;BME280;38258;51.148;14.068;2023-03-19T13:15:46;98185.41;;;15.35;52.49
52319;BME280;38258;51.148;14.068;2023-03-19T13:18:16;98179.44;;;15.82;52.70
52319;BME280;38258;51.148;14.068;2023-03-19T13:20:59;98175.34;;;16.10;52.31
52319;BME280;38258;51.148;14.068;2023-03-19T13:23:30;98177.09;;;15.94;49.70
52319;BME280;38258;51.148;14.068;2023-03-19T13:26:01;98167.25;;;16.14;48.60
52319;BME280;38258;51.148;14.068;2023-03-19T13:28:32;98173.63;;;15.76;49.05
52319;BME280;38258;51.148;14.068;2023-03-19T13:31:01;98171.28;;;15.53;52.15
52319;BME280;38258;51.148;14.068;2023-03-19T13:33:29;98186.34;;;15.34;50.97
52319;BME280;38258;51.148;14.068;2023-03-19T13:36:00;98159.81;;;15.37;51.68
52319;BME280;38258;51.148;14.068;2023-03-19T13:38:36;98171.63;;;15.12;54.65
52319;BME280;38258;51.148;14.068;2023-03-19T13:44:26;98177.59;;;14.61;53.39
52319;BME280;38258;51.148;14.068;2023-03-19T13:46:54;98170.59;;;14.79;52.86
52319;BME280;38258;51.148;14.068;2023-03-19T13:49:30;98176.34;;;14.68;52.61
52319;BME280;38258;51.148;14.068;2023-03-19T13:52:09;98169.84;;;14.58;56.58
52319;BME280;38258;51.148;14.068;2023-03-19T13:54:52;98168.25;;;14.54;56.76
52319;BME280;38258;51.148;14.068;2023-03-19T13:57:33;98165.09;;;14.84;54.05
52319;BME280;38258;51.148;14.068;2023-03-19T14:03:05;98155.25;;;13.55;60.68
52319;BME280;38258;51.148;14.068;2023-03-19T14:05:34;98164.91;;;14.13;59.70
52319;BME280;38258;51.148;14.068;2023-03-19T14:08:13;98171.22;;;13.90;58.28
52319;BME280;38258;51.148;14.068;2023-03-19T14:10:46;98167.75;;;13.90;60.24
52319;BME280;38258;51.148;14.068;2023-03-19T14:13:26;98170.56;;;13.85;58.23
52319;BME280;38258;51.148;14.068;2023-03-19T14:16:03;98174.41;;;13.78;59.42
52319;BME280;38258;51.148;14.068;2023-03-19T14:18:31;98165.16;;;13.88;59.80
52319;BME280;38258;51.148;14.068;2023-03-19T14:21:00;98162.69;;;13.85;59.36
52319;BME280;38258;51.148;14.068;2023-03-19T14:23:29;98162.16;;;13.77;61.76
52319;BME280;38258;51.148;14.068;2023-03-19T14:26:05;98158.44;;;14.02;60.01
52319;BME280;38258;51.148;14.068;2023-03-19T14:28:51;98164.19;;;13.91;58.06
52319;BME280;38258;51.148;14.068;2023-03-19T14:31:24;98163.88;;;13.97;59.72
52319;BME280;38258;51.148;14.068;2023-03-19T14:36:44;98155.88;;;13.81;58.30
52319;BME280;38258;51.148;14.068;2023-03-19T14:39:18;98164.94;;;13.74;59.64
52319;BME280;38258;51.148;14.068;2023-03-19T14:41:49;98161.28;;;13.57;61.69
52319;BME280;38258;51.148;14.068;2023-03-19T14:44:48;98158.09;;;13.50;61.12
52319;BME280;38258;51.148;14.068;2023-03-19T14:47:46;98163.94;;;13.36;62.52
52319;BME280;38258;51.148;14.068;2023-03-19T14:50:38;98169.28;;;13.12;63.77
52319;BME280;38258;51.148;14.068;2023-03-19T14:53:10;98168.31;;;13.15;64.74
52319;BME280;38258;51.148;14.068;2023-03-19T14:55:40;98168.78;;;13.25;63.41
52319;BME280;38258;51.148;14.068;2023-03-19T14:58:09;98169.03;;;13.19;61.50
52319;BME280;38258;51.148;14.068;2023-03-19T15:00:42;98173.31;;;13.21;61.91
52319;BME280;38258;51.148;14.068;2023-03-19T15:03:20;98178.94;;;13.12;61.56
52319;BME280;38258;51.148;14.068;2023-03-19T15:05:48;98171.66;;;12.98;64.58
52319;BME280;38258;51.148;14.068;2023-03-19T15:08:20;98170.78;;;12.97;64.74
52319;BME280;38258;51.148;14.068;2023-03-19T15:10:56;98150.00;;;12.93;64.38
52319;BME280;38258;51.148;14.068;2023-03-19T15:13:46;98162.63;;;12.83;64.40
52319;BME280;38258;51.148;14.068;2023-03-19T15:16:27;98165.44;;;13.00;65.07
52319;BME280;38258;51.148;14.068;2023-03-19T15:18:57;98168.44;;;12.91;62.34
52319;BME280;38258;51.148;14.068;2023-03-19T15:21:23;98157.50;;;12.80;63.50
52319;BME280;38258;51.148;14.068;2023-03-19T15:23:51;98168.41;;;12.70;63.22
52319;BME280;38258;51.148;14.068;2023-03-19T15:26:28;98167.41;;;12.73;66.55
52319;BME280;38258;51.148;14.068;2023-03-19T15:28:55;98159.63;;;12.71;63.54
52319;BME280;38258;51.148;14.068;2023-03-19T15:31:39;98164.72;;;12.75;64.74
52319;BME280;38258;51.148;14.068;2023-03-19T15:34:17;98161.41;;;12.69;64.18
52319;BME280;38258;51.148;14.068;2023-03-19T15:36:44;98160.00;;;12.83;64.43
52319;BME280;38258;51.148;14.068;2023-03-19T15:39:15;98169.28;;;12.69;67.30
52319;BME280;38258;51.148;14.068;2023-03-19T15:41:46;98165.47;;;12.56;66.67
52319;BME280;38258;51.148;14.068;2023-03-19T15:44:17;98170.72;;;12.56;65.70
52319;BME280;38258;51.148;14.068;2023-03-19T15:46:48;98171.09;;;12.47;66.78
52319;BME280;38258;51.148;14.068;2023-03-19T15:49:19;98170.00;;;12.52;64.59
52319;BME280;38258;51.148;14.068;2023-03-19T15:51:48;98170.41;;;12.41;64.33
52319;BME280;38258;51.148;14.068;2023-03-19T15:54:19;98176.88;;;12.55;64.09
52319;BME280;38258;51.148;14.068;2023-03-19T15:56:47;98174.94;;;12.38;65.64
52319;BME280;38258;51.148;14.068;2023-03-19T15:59:16;98165.97;;;12.21;66.30
52319;BME280;38258;51.148;14.068;2023-03-19T16:01:44;98177.91;;;12.05;66.60
52319;BME280;38258;51.148;14.068;2023-03-19T16:04:15;98185.59;;;12.09;66.54
52319;BME280;38258;51.148;14.068;2023-03-19T16:06:47;98188.97;;;12.13;65.55
52319;BME280;38258;51.148;14.068;2023-03-19T16:09:21;98184.31;;;11.96;66.63
52319;BME280;38258;51.148;14.068;2023-03-19T16:11:48;98188.53;;;12.01;66.23
52319;BME280;38258;51.148;14.068;2023-03-19T16:14:22;98190.28;;;12.01;64.28
52319;BME280;38258;51.148;14.068;2023-03-19T16:16:50;98181.06;;;11.89;63.49
52319;BME280;38258;51.148;14.068;2023-03-19T16:19:29;98197.81;;;12.10;64.08
52319;BME280;38258;51.148;14.068;2023-03-19T16:21:57;98197.63;;;11.91;66.92
52319;BME280;38258;51.148;14.068;2023-03-19T16:24:27;98206.22;;;11.95;69.48